createdAt,value
2022-08-30T00:01:02.351Z,17.74
2022-08-30T00:03:30.920Z,17.70
2022-08-30T00:05:58.085Z,17.72
2022-08-30T00:08:25.011Z,17.68
2022-08-30T00:10:51.707Z,17.67
2022-08-30T00:13:19.734Z,17.61
2022-08-30T00:15:46.613Z,17.59
2022-08-30T00:18:13.513Z,17.56
2022-08-30T00:20:40.518Z,17.52
2022-08-30T00:23:07.597Z,17.52
2022-08-30T00:25:34.831Z,17.48
2022-08-30T00:28:01.534Z,17.49
2022-08-30T00:30:28.307Z,17.49
2022-08-30T00:32:55.144Z,17.45
2022-08-30T00:35:22.295Z,17.44
2022-08-30T00:37:50.929Z,17.43
2022-08-30T00:40:20.507Z,17.41
2022-08-30T00:42:59.331Z,17.36
2022-08-30T00:45:37.318Z,17.32
2022-08-30T00:48:05.291Z,17.27
2022-08-30T00:50:36.491Z,17.26
2022-08-30T00:53:06.628Z,17.22
2022-08-30T00:55:33.433Z,17.21
2022-08-30T00:58:04.245Z,17.20
2022-08-30T01:00:31.891Z,17.19
2022-08-30T01:02:58.710Z,17.19
2022-08-30T01:05:25.425Z,17.21
2022-08-30T01:07:52.124Z,17.17
2022-08-30T01:10:20.203Z,17.18
2022-08-30T01:12:47.620Z,17.20
2022-08-30T01:15:14.843Z,17.18
2022-08-30T01:17:45.433Z,17.17
2022-08-30T01:20:16.221Z,17.19
2022-08-30T01:22:49.813Z,17.21
2022-08-30T01:25:22.795Z,17.20
2022-08-30T01:27:53.052Z,17.20
2022-08-30T01:30:19.937Z,17.19
2022-08-30T01:32:47.763Z,17.21
2022-08-30T01:35:18.117Z,17.22
2022-08-30T01:37:45.272Z,17.24
2022-08-30T01:40:14.323Z,17.24
2022-08-30T01:42:41.593Z,17.22
2022-08-30T01:45:09.069Z,17.22
2022-08-30T01:47:36.132Z,17.23
2022-08-30T01:50:04.637Z,17.25
2022-08-30T01:52:31.580Z,17.25
2022-08-30T01:54:58.387Z,17.23
2022-08-30T01:57:27.039Z,17.28
2022-08-30T01:59:54.017Z,17.30
2022-08-30T02:02:23.648Z,17.29
2022-08-30T02:04:51.890Z,17.30
2022-08-30T02:07:18.653Z,17.32
2022-08-30T02:09:46.250Z,17.29
2022-08-30T02:12:13.319Z,17.25
2022-08-30T02:14:40.323Z,17.24
2022-08-30T02:17:10.245Z,17.23
2022-08-30T02:19:36.967Z,17.23
2022-08-30T02:22:03.799Z,17.25
2022-08-30T02:24:30.696Z,17.25
2022-08-30T02:26:57.488Z,17.20
2022-08-30T02:29:24.967Z,17.23
2022-08-30T02:31:51.802Z,17.23
2022-08-30T02:34:19.034Z,17.18
2022-08-30T02:36:46.269Z,17.16
2022-08-30T02:39:13.858Z,17.13
2022-08-30T02:41:41.817Z,17.10
2022-08-30T02:44:09.327Z,17.09
2022-08-30T02:46:36.527Z,17.06
2022-08-30T02:49:29.981Z,17.03
2022-08-30T02:51:50.632Z,17.04
2022-08-30T02:54:20.231Z,17.01
2022-08-30T02:56:48.058Z,17.00
2022-08-30T02:59:15.983Z,16.96
2022-08-30T03:01:42.853Z,16.94
2022-08-30T03:04:10.057Z,16.91
2022-08-30T03:06:36.764Z,16.97
2022-08-30T03:09:04.029Z,16.96
2022-08-30T03:11:31.294Z,16.93
2022-08-30T03:13:58.247Z,16.89
2022-08-30T03:16:25.137Z,16.87
2022-08-30T03:18:51.884Z,16.90
2022-08-30T03:21:18.689Z,16.88
2022-08-30T03:23:45.672Z,16.88
2022-08-30T03:26:14.997Z,16.92
2022-08-30T03:28:42.659Z,16.94
2022-08-30T03:31:09.766Z,16.99
2022-08-30T03:33:37.202Z,17.00
2022-08-30T03:36:04.060Z,17.04
2022-08-30T03:38:31.280Z,17.06
2022-08-30T03:40:58.072Z,17.07
2022-08-30T03:43:25.484Z,17.07
2022-08-30T03:45:52.636Z,17.12
2022-08-30T03:48:19.397Z,17.20
2022-08-30T03:50:46.118Z,17.21
2022-08-30T03:53:12.879Z,17.27
2022-08-30T03:55:39.631Z,17.29
2022-08-30T03:58:06.409Z,17.31
2022-08-30T04:00:33.195Z,17.37
2022-08-30T04:03:00.130Z,17.37
2022-08-30T04:05:27.491Z,17.34
2022-08-30T04:07:54.720Z,17.33
2022-08-30T04:10:21.582Z,17.31
2022-08-30T04:12:49.895Z,17.37
2022-08-30T04:15:17.897Z,17.35
2022-08-30T04:17:44.928Z,17.35
2022-08-30T04:20:11.745Z,17.34
2022-08-30T04:22:38.498Z,17.30
2022-08-30T04:25:06.371Z,17.28
2022-08-30T04:27:33.112Z,17.29
2022-08-30T04:30:00.334Z,17.24
2022-08-30T04:32:27.158Z,17.21
2022-08-30T04:34:58.742Z,17.21
2022-08-30T04:37:25.905Z,17.17
2022-08-30T04:40:03.630Z,17.18
2022-08-30T04:42:33.157Z,17.14
2022-08-30T04:45:03.162Z,17.13
2022-08-30T04:47:29.961Z,17.14
2022-08-30T04:49:56.758Z,17.13
2022-08-30T04:52:23.474Z,17.12
2022-08-30T04:54:55.605Z,17.13
2022-08-30T04:57:22.820Z,17.10
2022-08-30T04:59:49.606Z,17.10
2022-08-30T05:02:17.821Z,17.10
2022-08-30T05:05:04.752Z,17.13
2022-08-30T05:07:32.791Z,17.17
2022-08-30T05:09:59.817Z,17.20
2022-08-30T05:12:27.245Z,17.24
2022-08-30T05:14:54.014Z,17.29
2022-08-30T05:17:23.596Z,17.31
2022-08-30T05:19:50.313Z,17.42
2022-08-30T05:22:17.129Z,17.46
2022-08-30T05:24:43.941Z,17.52
2022-08-30T05:27:10.688Z,17.57
2022-08-30T05:29:37.422Z,17.57
2022-08-30T05:32:04.167Z,17.64
2022-08-30T05:34:31.090Z,17.73
2022-08-30T05:36:57.887Z,17.81
2022-08-30T05:39:24.658Z,17.81
2022-08-30T05:41:51.375Z,17.74
2022-08-30T05:44:18.197Z,17.86
2022-08-30T05:46:46.388Z,17.98
2022-08-30T05:49:13.261Z,18.05
2022-08-30T05:51:41.040Z,18.16
2022-08-30T05:54:10.874Z,18.23
2022-08-30T05:56:39.297Z,18.27
2022-08-30T05:59:07.548Z,18.32
2022-08-30T06:01:43.329Z,18.35
2022-08-30T06:04:12.063Z,18.39
2022-08-30T06:06:41.139Z,18.34
2022-08-30T06:09:09.693Z,18.43
2022-08-30T06:11:37.047Z,18.52
2022-08-30T06:14:05.455Z,18.59
2022-08-30T06:16:33.015Z,18.67
2022-08-30T06:19:00.626Z,18.78
2022-08-30T06:21:33.947Z,18.89
2022-08-30T06:24:01.192Z,18.97
2022-08-30T06:26:29.652Z,19.05
2022-08-30T06:28:57.590Z,19.17
2022-08-30T06:31:25.766Z,19.25
2022-08-30T06:33:53.037Z,19.31
2022-08-30T06:36:22.916Z,19.42
2022-08-30T06:38:51.007Z,19.52
2022-08-30T06:41:20.455Z,19.57
2022-08-30T06:43:49.229Z,19.68
2022-08-30T06:46:26.194Z,19.83
2022-08-30T06:48:57.042Z,19.95
2022-08-30T06:51:32.495Z,19.93
2022-08-30T06:54:01.946Z,20.02
2022-08-30T06:56:28.760Z,20.13
2022-08-30T06:58:55.661Z,20.14
2022-08-30T07:01:25.967Z,20.23
2022-08-30T07:03:53.510Z,20.35
2022-08-30T07:06:20.670Z,20.39
2022-08-30T07:08:48.123Z,20.52
2022-08-30T07:11:15.942Z,20.59
2022-08-30T07:13:42.691Z,20.52
2022-08-30T07:16:11.850Z,20.44
2022-08-30T07:18:56.782Z,20.51
2022-08-30T07:21:37.288Z,20.45
2022-08-30T07:24:05.023Z,20.37
2022-08-30T07:26:41.814Z,20.20
2022-08-30T07:29:09.675Z,20.32
2022-08-30T07:31:37.710Z,20.52
2022-08-30T07:34:05.937Z,20.82
2022-08-30T07:36:33.575Z,20.98
2022-08-30T07:39:00.344Z,21.23
2022-08-30T07:41:32.877Z,21.22
2022-08-30T07:43:59.583Z,21.02
2022-08-30T07:46:27.600Z,21.28
2022-08-30T07:48:59.336Z,21.24
2022-08-30T07:51:26.960Z,21.43
2022-08-30T07:53:54.846Z,21.60
2022-08-30T07:56:22.497Z,21.69
2022-08-30T07:58:50.033Z,21.68
2022-08-30T08:01:17.368Z,21.64
2022-08-30T08:03:44.720Z,21.48
2022-08-30T08:06:13.515Z,21.15
2022-08-30T08:08:40.709Z,21.28
2022-08-30T08:11:16.713Z,21.32
2022-08-30T08:13:53.069Z,21.22
2022-08-30T08:16:26.013Z,21.22
2022-08-30T08:18:53.805Z,21.11
2022-08-30T08:21:22.066Z,21.12
2022-08-30T08:23:49.349Z,21.04
2022-08-30T08:26:16.126Z,21.07
2022-08-30T08:28:43.194Z,21.17
2022-08-30T08:31:23.565Z,21.05
2022-08-30T08:33:52.260Z,21.48
2022-08-30T08:36:18.969Z,21.68
2022-08-30T08:38:45.986Z,22.24
2022-08-30T08:41:31.512Z,22.46
2022-08-30T08:43:58.961Z,22.45
2022-08-30T08:46:45.361Z,22.44
2022-08-30T08:49:12.762Z,22.47
2022-08-30T08:51:59.482Z,22.54
2022-08-30T08:54:35.732Z,22.40
2022-08-30T08:57:02.614Z,22.58
2022-08-30T08:59:29.478Z,22.88
2022-08-30T09:02:00.943Z,23.19
2022-08-30T09:04:34.441Z,23.19
2022-08-30T09:07:05.918Z,23.12
2022-08-30T09:09:35.568Z,23.02
2022-08-30T09:12:03.641Z,22.71
2022-08-30T09:14:35.195Z,22.82
2022-08-30T09:17:10.648Z,22.89
2022-08-30T09:19:45.731Z,22.84
2022-08-30T09:22:12.561Z,22.79
2022-08-30T09:24:45.670Z,22.56
2022-08-30T09:27:25.323Z,22.63
2022-08-30T09:29:52.026Z,22.39
2022-08-30T09:32:31.255Z,22.18
2022-08-30T09:34:58.674Z,22.01
2022-08-30T09:37:47.471Z,22.28
2022-08-30T09:40:21.265Z,22.42
2022-08-30T09:43:09.536Z,22.32
2022-08-30T09:45:42.961Z,22.36
2022-08-30T09:48:21.972Z,21.83
2022-08-30T09:50:56.890Z,22.16
2022-08-30T09:53:26.213Z,22.32
2022-08-30T09:56:10.164Z,22.32
2022-08-30T09:58:46.170Z,22.09
2022-08-30T10:01:31.089Z,22.20
2022-08-30T10:04:17.522Z,22.27
2022-08-30T10:06:53.900Z,22.33
2022-08-30T10:09:32.818Z,22.12
2022-08-30T10:12:13.018Z,22.34
2022-08-30T10:14:52.098Z,22.37
2022-08-30T10:17:28.331Z,22.28
2022-08-30T10:20:15.594Z,22.48
2022-08-30T10:22:47.054Z,22.93
2022-08-30T10:25:26.227Z,23.42
2022-08-30T10:27:59.197Z,24.05
2022-08-30T10:30:26.650Z,24.50
2022-08-30T10:33:00.765Z,24.33
2022-08-30T10:35:38.902Z,24.71
2022-08-30T10:38:22.162Z,25.20
2022-08-30T10:41:14.370Z,25.71
2022-08-30T10:43:50.980Z,26.35
2022-08-30T10:46:29.917Z,26.64
2022-08-30T10:48:59.989Z,27.08
2022-08-30T10:51:28.250Z,27.33
2022-08-30T10:53:58.140Z,27.36
2022-08-30T10:56:27.119Z,26.97
2022-08-30T10:58:55.012Z,27.37
2022-08-30T11:01:32.252Z,27.81
2022-08-30T11:04:45.477Z,28.26
2022-08-30T11:07:18.864Z,29.08
2022-08-30T11:09:56.680Z,28.99
2022-08-30T11:12:36.973Z,29.51
2022-08-30T11:15:32.393Z,29.88
2022-08-30T11:18:03.746Z,30.31
2022-08-30T11:21:02.809Z,30.62
2022-08-30T11:23:36.492Z,30.83
2022-08-30T11:26:07.561Z,30.69
2022-08-30T11:28:37.361Z,30.70
2022-08-30T11:31:04.270Z,30.52
2022-08-30T11:33:45.048Z,29.88
2022-08-30T11:36:37.766Z,29.44
2022-08-30T11:39:10.727Z,29.08
2022-08-30T11:41:47.679Z,29.26
2022-08-30T11:44:28.982Z,29.05
2022-08-30T11:46:58.796Z,28.28
2022-08-30T11:49:46.936Z,28.19
2022-08-30T11:52:58.656Z,28.48
2022-08-30T11:55:33.188Z,28.74
2022-08-30T11:58:37.786Z,28.64
2022-08-30T12:01:40.769Z,28.71
2022-08-30T12:04:10.030Z,28.08
2022-08-30T12:06:42.110Z,27.92
2022-08-30T12:09:35.658Z,27.18
2022-08-30T12:12:05.742Z,26.85
2022-08-30T12:14:40.793Z,27.02
2022-08-30T12:17:47.217Z,26.90
2022-08-30T12:20:40.814Z,26.53
2022-08-30T12:23:21.671Z,26.28
2022-08-30T12:25:50.352Z,26.21
2022-08-30T12:28:24.191Z,26.16
2022-08-30T12:30:52.064Z,25.77
2022-08-30T12:33:40.247Z,25.80
2022-08-30T12:36:31.499Z,25.66
2022-08-30T12:39:14.621Z,25.56
2022-08-30T12:41:43.663Z,25.53
2022-08-30T12:44:15.812Z,25.52
2022-08-30T12:46:44.202Z,25.45
2022-08-30T12:49:13.855Z,25.43
2022-08-30T12:51:42.332Z,25.33
2022-08-30T12:54:16.163Z,25.28
2022-08-30T12:56:54.142Z,25.34
2022-08-30T12:59:40.709Z,25.32
2022-08-30T13:02:26.192Z,25.47
2022-08-30T13:04:55.336Z,25.60
2022-08-30T13:07:28.083Z,25.48
2022-08-30T13:10:04.894Z,25.67
2022-08-30T13:12:32.808Z,25.79
2022-08-30T13:15:12.162Z,25.73
2022-08-30T13:17:39.000Z,25.55
2022-08-30T13:20:22.037Z,25.44
2022-08-30T13:23:09.873Z,25.43
2022-08-30T13:25:39.039Z,25.47
2022-08-30T13:28:07.328Z,25.24
2022-08-30T13:30:34.580Z,25.32
2022-08-30T13:33:02.268Z,25.25
2022-08-30T13:35:30.348Z,25.17
2022-08-30T13:37:57.783Z,25.07
2022-08-30T13:40:24.994Z,25.12
2022-08-30T13:42:51.919Z,25.08
2022-08-30T13:48:06.751Z,24.99
2022-08-30T13:50:33.820Z,25.03
2022-08-30T13:53:00.668Z,24.87
2022-08-30T13:55:28.153Z,25.06
2022-08-30T13:57:56.417Z,24.91
2022-08-30T14:00:25.306Z,25.16
2022-08-30T14:02:57.517Z,25.14
2022-08-30T14:11:09.570Z,25.21
2022-08-30T14:13:36.925Z,25.31
2022-08-30T14:18:55.463Z,25.12
2022-08-30T14:21:24.835Z,24.88
2022-08-30T14:23:53.465Z,24.98
2022-08-30T14:26:24.027Z,24.88
2022-08-30T14:28:51.915Z,24.98
2022-08-30T14:31:19.323Z,24.44
2022-08-30T14:33:47.026Z,24.64
2022-08-30T14:36:15.683Z,24.72
2022-08-30T14:38:43.411Z,24.83
2022-08-30T14:41:11.129Z,24.72
2022-08-30T14:43:40.742Z,24.71
2022-08-30T14:46:08.685Z,24.70
2022-08-30T14:48:37.086Z,24.55
2022-08-30T14:51:12.251Z,24.50
2022-08-30T14:53:39.401Z,24.33
2022-08-30T14:56:11.600Z,24.37
2022-08-30T14:58:38.584Z,24.40
2022-08-30T15:01:09.904Z,24.47
2022-08-30T15:03:41.327Z,24.38
2022-08-30T15:06:09.135Z,24.02
2022-08-30T15:08:36.863Z,24.26
2022-08-30T15:11:11.912Z,24.15
2022-08-30T15:13:39.608Z,24.22
2022-08-30T15:16:27.551Z,24.20
2022-08-30T15:18:55.136Z,24.13
2022-08-30T15:21:31.409Z,24.16
2022-08-30T15:24:01.629Z,24.23
2022-08-30T15:26:28.636Z,24.10
2022-08-30T15:28:55.791Z,23.85
2022-08-30T15:31:28.202Z,24.03
2022-08-30T15:33:55.165Z,23.74
2022-08-30T15:36:24.422Z,23.83
2022-08-30T15:38:52.939Z,23.80
2022-08-30T15:41:19.728Z,23.98
2022-08-30T15:43:46.614Z,23.53
2022-08-30T15:46:29.508Z,23.81
2022-08-30T15:49:03.163Z,23.67
2022-08-30T15:51:38.820Z,23.76
2022-08-30T15:54:10.061Z,23.76
2022-08-30T15:56:39.240Z,23.76
2022-08-30T15:59:06.257Z,23.52
2022-08-30T16:01:33.929Z,23.46
2022-08-30T16:04:01.387Z,23.60
2022-08-30T16:06:31.822Z,23.58
2022-08-30T16:08:59.003Z,23.67
2022-08-30T16:11:25.928Z,23.06
2022-08-30T16:13:55.258Z,23.22
2022-08-30T16:16:23.351Z,23.11
2022-08-30T16:18:54.304Z,23.09
2022-08-30T16:21:29.772Z,23.14
2022-08-30T16:23:58.128Z,23.10
2022-08-30T16:26:25.597Z,22.99
2022-08-30T16:28:52.688Z,22.98
2022-08-30T16:31:19.710Z,23.00
2022-08-30T16:33:47.546Z,22.89
2022-08-30T16:36:21.141Z,22.80
2022-08-30T16:38:48.272Z,22.89
2022-08-30T16:41:21.342Z,23.04
2022-08-30T16:43:49.699Z,23.00
2022-08-30T16:46:22.944Z,23.09
2022-08-30T16:48:50.348Z,23.06
2022-08-30T16:51:20.004Z,23.09
2022-08-30T16:53:47.430Z,22.95
2022-08-30T16:56:17.010Z,22.82
2022-08-30T16:58:45.013Z,22.76
2022-08-30T17:01:13.201Z,22.79
2022-08-30T17:03:40.888Z,22.85
2022-08-30T17:06:08.497Z,22.89
2022-08-30T17:08:35.744Z,22.92
2022-08-30T17:11:03.437Z,22.91
2022-08-30T17:13:30.712Z,22.83
2022-08-30T17:16:00.104Z,22.76
2022-08-30T17:18:27.106Z,22.72
2022-08-30T17:20:54.113Z,22.59
2022-08-30T17:23:22.376Z,22.48
2022-08-30T17:25:50.632Z,22.52
2022-08-30T17:28:17.671Z,22.43
2022-08-30T17:30:46.962Z,22.24
2022-08-30T17:33:15.336Z,22.32
2022-08-30T17:35:44.695Z,22.33
2022-08-30T17:38:11.667Z,22.38
2022-08-30T17:40:38.857Z,22.33
2022-08-30T17:43:08.048Z,22.29
2022-08-30T17:45:35.225Z,22.31
2022-08-30T17:48:02.457Z,22.26
2022-08-30T17:50:29.408Z,22.22
2022-08-30T17:53:00.485Z,22.19
2022-08-30T17:55:28.492Z,22.16
2022-08-30T17:58:00.589Z,22.02
2022-08-30T18:00:34.314Z,22.02
2022-08-30T18:03:01.739Z,21.99
2022-08-30T18:05:29.446Z,21.95
2022-08-30T18:07:56.381Z,21.88
2022-08-30T18:10:30.506Z,21.84
2022-08-30T18:13:01.346Z,21.78
2022-08-30T18:15:29.654Z,21.75
2022-08-30T18:17:56.469Z,21.61
2022-08-30T18:20:23.338Z,21.62
2022-08-30T18:22:53.819Z,21.62
2022-08-30T18:25:21.247Z,21.63
2022-08-30T18:27:57.284Z,21.55
2022-08-30T18:30:33.246Z,21.43
2022-08-30T18:33:01.613Z,21.44
2022-08-30T18:35:29.773Z,21.47
2022-08-30T18:37:58.221Z,21.21
2022-08-30T18:40:25.108Z,21.16
2022-08-30T18:42:51.904Z,21.28
2022-08-30T18:45:19.171Z,21.29
2022-08-30T18:47:45.861Z,21.28
2022-08-30T18:50:12.988Z,21.25
2022-08-30T18:52:40.192Z,21.17
2022-08-30T18:55:07.500Z,21.17
2022-08-30T18:57:35.342Z,21.08
2022-08-30T19:00:03.818Z,21.09
2022-08-30T19:02:30.777Z,20.94
2022-08-30T19:04:59.102Z,20.96
2022-08-30T19:07:29.914Z,20.96
2022-08-30T19:10:01.899Z,20.96
2022-08-30T19:12:30.130Z,20.89
2022-08-30T19:14:57.059Z,20.88
2022-08-30T19:17:26.441Z,20.88
2022-08-30T19:19:54.688Z,20.86
2022-08-30T19:22:22.811Z,20.82
2022-08-30T19:24:53.535Z,20.76
2022-08-30T19:27:37.141Z,20.71
2022-08-30T19:30:23.157Z,20.65
2022-08-30T19:32:51.426Z,20.58
2022-08-30T19:35:19.536Z,20.51
2022-08-30T19:37:46.392Z,20.46
2022-08-30T19:40:15.781Z,20.42
2022-08-30T19:42:45.782Z,20.36
2022-08-30T19:45:15.579Z,20.37
2022-08-30T19:47:42.669Z,20.32
2022-08-30T19:50:09.729Z,20.24
2022-08-30T19:52:37.344Z,20.20
2022-08-30T19:55:06.865Z,20.12
2022-08-30T19:57:33.970Z,20.07
2022-08-30T20:00:01.211Z,20.02
2022-08-30T20:02:39.811Z,19.93
2022-08-30T20:05:07.268Z,19.88
2022-08-30T20:07:36.778Z,19.81
2022-08-30T20:10:07.457Z,19.79
2022-08-30T20:12:35.843Z,19.74
2022-08-30T20:15:09.319Z,19.67
2022-08-30T20:17:53.665Z,19.61
2022-08-30T20:20:24.086Z,19.56
2022-08-30T20:22:54.056Z,19.50
2022-08-30T20:25:21.607Z,19.48
2022-08-30T20:27:49.197Z,19.42
2022-08-30T20:30:17.822Z,19.38
2022-08-30T20:32:46.830Z,19.34
2022-08-30T20:35:15.532Z,19.31
2022-08-30T20:37:43.403Z,19.27
2022-08-30T20:40:15.595Z,19.23
2022-08-30T20:42:45.704Z,19.22
2022-08-30T20:45:15.289Z,19.15
2022-08-30T20:47:43.163Z,19.11
2022-08-30T20:50:13.771Z,19.08
2022-08-30T20:52:41.855Z,19.07
2022-08-30T20:55:09.362Z,19.01
2022-08-30T20:57:36.173Z,18.98
2022-08-30T21:00:09.379Z,18.94
2022-08-30T21:02:36.940Z,18.93
2022-08-30T21:05:10.826Z,18.90
2022-08-30T21:07:37.599Z,18.88
2022-08-30T21:10:04.802Z,18.80
2022-08-30T21:12:32.098Z,18.78
2022-08-30T21:14:59.214Z,18.76
2022-08-30T21:17:27.346Z,18.74
2022-08-30T21:19:55.401Z,18.74
2022-08-30T21:22:23.154Z,18.76
2022-08-30T21:24:49.955Z,18.72
2022-08-30T21:27:16.721Z,18.72
2022-08-30T21:29:43.646Z,18.68
2022-08-30T21:32:10.585Z,18.66
2022-08-30T21:34:56.023Z,18.62
2022-08-30T21:37:22.791Z,18.53
2022-08-30T21:39:49.743Z,18.52
2022-08-30T21:42:16.848Z,18.49
2022-08-30T21:44:43.545Z,18.48
2022-08-30T21:47:13.251Z,18.48
2022-08-30T21:49:49.961Z,18.44
2022-08-30T21:52:16.866Z,18.41
2022-08-30T21:54:43.573Z,18.41
2022-08-30T21:57:10.302Z,18.37
2022-08-30T21:59:36.987Z,18.35
2022-08-30T22:02:04.441Z,18.38
2022-08-30T22:04:31.227Z,18.39
2022-08-30T22:06:58.008Z,18.38
2022-08-30T22:09:25.511Z,18.44
2022-08-30T22:11:52.441Z,18.51
2022-08-30T22:14:19.950Z,18.49
2022-08-30T22:16:46.789Z,18.52
2022-08-30T22:19:13.568Z,18.53
2022-08-30T22:21:42.066Z,18.52
2022-08-30T22:24:09.737Z,18.53
2022-08-30T22:26:36.733Z,18.54
2022-08-30T22:29:05.192Z,18.53
2022-08-30T22:31:32.105Z,18.52
2022-08-30T22:33:59.010Z,18.49
2022-08-30T22:36:32.624Z,18.47
2022-08-30T22:39:00.874Z,18.46
2022-08-30T22:41:31.385Z,18.44
2022-08-30T22:43:58.844Z,18.42
2022-08-30T22:46:34.623Z,18.41
2022-08-30T22:49:02.461Z,18.37
2022-08-30T22:51:29.275Z,18.30
2022-08-30T22:53:56.089Z,18.28
2022-08-30T22:56:25.737Z,18.27
2022-08-30T22:58:53.455Z,18.22
2022-08-30T23:01:23.886Z,18.20
2022-08-30T23:03:51.863Z,18.16
2022-08-30T23:06:19.092Z,18.13
2022-08-30T23:08:45.853Z,18.13
2022-08-30T23:11:12.837Z,18.11
2022-08-30T23:13:39.713Z,18.07
2022-08-30T23:16:07.941Z,18.05
2022-08-30T23:18:36.897Z,18.01
2022-08-30T23:21:10.872Z,17.97
2022-08-30T23:23:57.046Z,17.90
2022-08-30T23:26:42.773Z,17.90
2022-08-30T23:29:28.118Z,17.84
2022-08-30T23:32:13.764Z,17.80
2022-08-30T23:34:59.225Z,17.76
2022-08-30T23:37:44.544Z,17.70
2022-08-30T23:40:33.106Z,17.65
2022-08-30T23:43:18.625Z,17.57
2022-08-30T23:46:04.329Z,17.52
2022-08-30T23:48:51.981Z,17.47
2022-08-30T23:51:37.876Z,17.41
2022-08-30T23:54:24.311Z,17.39
2022-08-30T23:57:09.662Z,17.37
2022-08-30T23:59:55.113Z,17.36
